createdAt,value
2018-04-18T00:00:32.668Z,59.55
2018-04-18T00:01:32.684Z,60.09
2018-04-18T00:02:32.719Z,60.47
2018-04-18T00:03:32.739Z,60.76
2018-04-18T00:04:32.768Z,60.79
2018-04-18T00:05:32.782Z,60.60
2018-04-18T00:06:32.816Z,60.09
2018-04-18T00:07:32.831Z,60.67
2018-04-18T00:08:32.859Z,60.67
2018-04-18T00:09:32.883Z,60.86
2018-04-18T00:10:32.919Z,60.67
2018-04-18T00:11:32.925Z,60.76
2018-04-18T00:12:32.955Z,60.57
2018-04-18T00:13:32.979Z,60.12
2018-04-18T00:14:33.016Z,60.28
2018-04-18T00:15:33.023Z,60.19
2018-04-18T00:16:33.049Z,60.57
2018-04-18T00:17:33.076Z,60.22
2018-04-18T00:18:33.100Z,59.42
2018-04-18T00:19:33.125Z,60.09
2018-04-18T00:20:33.139Z,60.76
2018-04-18T00:21:33.164Z,59.90
2018-04-18T00:22:33.193Z,60.67
2018-04-18T00:23:33.211Z,59.90
2018-04-18T00:24:33.240Z,59.36
2018-04-18T00:25:33.282Z,59.06
2018-04-18T00:26:33.294Z,59.90
2018-04-18T00:27:33.305Z,59.74
2018-04-18T00:28:33.331Z,59.61
2018-04-18T00:29:33.361Z,59.52
2018-04-18T00:30:33.387Z,59.36
2018-04-18T00:31:33.399Z,59.42
2018-04-18T00:32:33.429Z,59.90
2018-04-18T00:33:33.449Z,59.80
2018-04-18T00:34:33.473Z,59.61
2018-04-18T00:35:33.503Z,59.71
2018-04-18T00:36:33.521Z,59.80
2018-04-18T00:37:33.546Z,59.61
2018-04-18T00:38:33.572Z,59.80
2018-04-18T00:39:33.593Z,59.61
2018-04-18T00:40:33.617Z,59.23
2018-04-18T00:41:33.641Z,59.13
2018-04-18T00:42:33.666Z,59.36
2018-04-18T00:43:33.681Z,58.87
2018-04-18T00:44:33.714Z,59.33
2018-04-18T00:45:33.737Z,59.23
2018-04-18T00:46:33.764Z,59.33
2018-04-18T00:47:33.786Z,60.19
2018-04-18T00:48:33.804Z,59.80
2018-04-18T00:49:33.839Z,59.61
2018-04-18T00:50:33.848Z,60.38
2018-04-18T00:51:33.877Z,60.19
2018-04-18T00:52:33.904Z,60.76
2018-04-18T00:53:33.924Z,60.19
2018-04-18T00:54:33.946Z,60.76
2018-04-18T00:55:33.969Z,60.16
2018-04-18T00:56:33.987Z,60.28
2018-04-18T00:57:34.012Z,59.61
2018-04-18T00:58:34.048Z,59.71
2018-04-18T00:59:34.068Z,59.90
2018-04-18T01:00:34.083Z,60.09
2018-04-18T01:01:34.133Z,59.64
2018-04-18T01:02:34.138Z,59.42
2018-04-18T01:03:34.190Z,60.19
2018-04-18T01:04:34.184Z,60.19
2018-04-18T01:05:34.212Z,60.09
2018-04-18T01:06:34.248Z,61.31
2018-04-18T01:07:34.268Z,62.07
2018-04-18T01:08:34.316Z,61.98
2018-04-18T01:09:34.305Z,62.36
2018-04-18T01:10:34.323Z,61.31
2018-04-18T01:11:34.350Z,60.67
2018-04-18T01:12:34.378Z,60.57
2018-04-18T01:13:34.391Z,62.55
2018-04-18T01:14:34.412Z,61.98
2018-04-18T01:15:34.450Z,61.69
2018-04-18T01:16:34.464Z,61.98
2018-04-18T01:17:34.504Z,63.03
2018-04-18T01:18:34.506Z,62.55
2018-04-18T01:19:34.534Z,61.91
2018-04-18T01:20:34.565Z,61.79
2018-04-18T01:21:34.596Z,62.26
2018-04-18T01:22:34.601Z,62.93
2018-04-18T01:23:34.626Z,63.13
2018-04-18T01:24:34.648Z,63.42
2018-04-18T01:25:34.673Z,63.80
2018-04-18T01:26:34.699Z,63.42
2018-04-18T01:27:34.732Z,63.48
2018-04-18T01:28:34.744Z,64.43
2018-04-18T01:29:34.768Z,64.15
2018-04-18T01:30:34.789Z,63.80
2018-04-18T01:31:34.837Z,63.57
2018-04-18T01:32:34.833Z,64.34
2018-04-18T01:33:34.881Z,64.25
2018-04-18T01:34:34.882Z,64.34
2018-04-18T01:35:34.907Z,64.63
2018-04-18T01:36:34.929Z,63.60
2018-04-18T01:37:34.951Z,63.60
2018-04-18T01:38:34.973Z,63.89
2018-04-18T01:39:34.995Z,64.28
2018-04-18T01:40:35.032Z,63.32
2018-04-18T01:41:35.040Z,63.51
2018-04-18T01:42:35.070Z,63.89
2018-04-18T01:43:35.092Z,63.89
2018-04-18T01:44:35.105Z,64.37
2018-04-18T01:45:35.130Z,63.96
2018-04-18T01:46:35.167Z,64.82
2018-04-18T01:47:35.173Z,64.53
2018-04-18T01:48:35.201Z,64.53
2018-04-18T01:49:35.223Z,64.63
2018-04-18T01:50:35.249Z,64.92
2018-04-18T01:51:35.264Z,64.09
2018-04-18T01:52:35.296Z,63.70
2018-04-18T01:53:35.315Z,63.99
2018-04-18T01:54:35.335Z,63.22
2018-04-18T01:55:35.370Z,64.37
2018-04-18T01:56:35.384Z,63.80
2018-04-18T01:57:35.405Z,63.51
2018-04-18T01:58:35.431Z,63.22
2018-04-18T01:59:35.457Z,64.63
2018-04-18T02:00:35.483Z,64.63
2018-04-18T02:01:35.499Z,64.63
2018-04-18T02:02:35.522Z,64.82
2018-04-18T02:03:35.547Z,65.20
2018-04-18T02:04:35.568Z,64.72
2018-04-18T02:05:35.591Z,64.63
2018-04-18T02:06:35.619Z,64.53
2018-04-18T02:07:35.690Z,64.43
2018-04-18T02:08:35.663Z,64.28
2018-04-18T02:09:35.687Z,63.67
2018-04-18T02:10:35.699Z,64.53
2018-04-18T02:11:35.722Z,64.88
2018-04-18T02:12:35.764Z,64.92
2018-04-18T02:13:35.778Z,64.72
2018-04-18T02:14:35.794Z,64.72
2018-04-18T02:15:35.813Z,64.43
2018-04-18T02:16:35.841Z,64.47
2018-04-18T02:17:35.892Z,63.29
2018-04-18T02:18:35.892Z,63.76
2018-04-18T02:19:35.902Z,63.57
2018-04-18T02:20:35.923Z,63.93
2018-04-18T02:21:36.003Z,63.48
2018-04-18T02:22:35.969Z,62.23
2018-04-18T02:23:35.993Z,61.94
2018-04-18T02:24:36.013Z,62.43
2018-04-18T02:25:36.041Z,62.23
2018-04-18T02:26:36.064Z,62.14
2018-04-18T02:27:36.090Z,62.33
2018-04-18T02:28:36.122Z,62.04
2018-04-18T02:29:36.134Z,62.23
2018-04-18T02:30:36.157Z,62.33
2018-04-18T02:31:36.186Z,62.43
2018-04-18T02:32:36.203Z,60.99
2018-04-18T02:33:36.217Z,61.85
2018-04-18T02:34:36.241Z,61.85
2018-04-18T02:35:36.273Z,62.04
2018-04-18T02:36:36.288Z,61.85
2018-04-18T02:37:36.339Z,62.77
2018-04-18T02:38:36.335Z,62.33
2018-04-18T02:39:36.390Z,61.57
2018-04-18T02:40:36.376Z,62.04
2018-04-18T02:41:36.398Z,61.37
2018-04-18T02:42:36.425Z,62.68
2018-04-18T02:43:36.446Z,62.04
2018-04-18T02:44:36.476Z,62.43
2018-04-18T02:45:36.487Z,62.52
2018-04-18T02:46:36.511Z,62.62
2018-04-18T02:47:36.535Z,62.33
2018-04-18T02:48:36.560Z,62.33
2018-04-18T02:49:36.585Z,62.52
2018-04-18T02:50:36.613Z,62.68
2018-04-18T02:51:36.629Z,62.71
2018-04-18T02:52:36.652Z,62.33
2018-04-18T02:53:36.670Z,62.68
2018-04-18T02:54:36.765Z,63.45
2018-04-18T02:55:36.723Z,63.45
2018-04-18T02:56:36.738Z,63.45
2018-04-18T02:57:36.763Z,63.54
2018-04-18T02:58:36.786Z,64.12
2018-04-18T02:59:36.815Z,63.64
2018-04-18T03:00:36.840Z,64.22
2018-04-18T03:01:36.913Z,63.45
2018-04-18T03:02:36.877Z,63.26
2018-04-18T03:03:36.896Z,63.16
2018-04-18T03:04:36.924Z,63.06
2018-04-18T03:05:36.967Z,63.35
2018-04-18T03:06:36.994Z,62.87
2018-04-18T03:07:37.003Z,63.26
2018-04-18T03:08:37.010Z,62.97
2018-04-18T03:09:37.038Z,62.87
2018-04-18T03:10:37.057Z,62.97
2018-04-18T03:11:37.085Z,62.77
2018-04-18T03:12:37.111Z,62.77
2018-04-18T03:13:37.135Z,62.40
2018-04-18T03:14:37.146Z,62.01
2018-04-18T03:15:37.167Z,62.20
2018-04-18T03:16:37.197Z,62.04
2018-04-18T03:17:37.210Z,62.20
2018-04-18T03:18:37.237Z,61.37
2018-04-18T03:19:37.259Z,61.18
2018-04-18T03:20:37.290Z,61.08
2018-04-18T03:21:37.304Z,61.94
2018-04-18T03:22:37.332Z,61.94
2018-04-18T03:23:37.353Z,63.10
2018-04-18T03:24:37.373Z,63.76
2018-04-18T03:25:37.393Z,63.48
2018-04-18T03:26:37.476Z,63.39
2018-04-18T03:27:37.441Z,63.57
2018-04-18T03:28:37.459Z,63.39
2018-04-18T03:29:37.490Z,63.86
2018-04-18T03:30:37.524Z,63.73
2018-04-18T03:31:37.643Z,63.57
2018-04-18T03:32:37.571Z,64.40
2018-04-18T03:33:37.609Z,65.04
2018-04-18T03:34:37.621Z,65.04
2018-04-18T03:35:37.632Z,64.59
2018-04-18T03:36:37.644Z,64.69
2018-04-18T03:37:37.665Z,64.43
2018-04-18T03:38:37.690Z,63.73
2018-04-18T03:39:37.709Z,64.40
2018-04-18T03:40:37.738Z,64.98
2018-04-18T03:41:37.754Z,64.98
2018-04-18T03:42:37.775Z,65.04
2018-04-18T03:43:37.805Z,65.81
2018-04-18T03:44:37.823Z,64.88
2018-04-18T03:45:37.846Z,64.79
2018-04-18T03:46:37.867Z,65.65
2018-04-18T03:47:37.887Z,65.36
2018-04-18T03:48:37.917Z,65.71
2018-04-18T03:49:37.942Z,65.61
2018-04-18T03:50:37.957Z,65.81
2018-04-18T03:51:37.976Z,65.52
2018-04-18T03:52:37.999Z,65.45
2018-04-18T03:53:38.021Z,65.17
2018-04-18T03:54:38.046Z,64.75
2018-04-18T03:55:38.066Z,65.23
2018-04-18T03:56:38.091Z,64.85
2018-04-18T03:57:38.104Z,64.85
2018-04-18T03:58:38.138Z,64.95
2018-04-18T03:59:38.161Z,64.75
2018-04-18T04:00:38.228Z,64.75
2018-04-18T04:01:38.212Z,65.04
2018-04-18T04:02:38.219Z,64.95
2018-04-18T04:03:38.251Z,65.14
2018-04-18T04:04:38.263Z,65.04
2018-04-18T04:05:38.286Z,65.08
2018-04-18T04:06:38.309Z,64.56
2018-04-18T04:07:38.340Z,64.85
2018-04-18T04:08:38.362Z,64.88
2018-04-18T04:09:38.599Z,64.31
2018-04-18T04:10:38.397Z,64.66
2018-04-18T04:11:38.433Z,63.83
2018-04-18T04:12:38.436Z,64.22
2018-04-18T04:13:38.467Z,64.47
2018-04-18T04:14:38.486Z,64.66
2018-04-18T04:15:38.510Z,64.88
2018-04-18T04:16:38.527Z,64.59
2018-04-18T04:17:38.560Z,63.73
2018-04-18T04:18:38.583Z,63.64
2018-04-18T04:19:38.608Z,63.54
2018-04-18T04:20:38.675Z,63.35
2018-04-18T04:21:38.643Z,63.45
2018-04-18T04:22:38.670Z,63.64
2018-04-18T04:23:38.681Z,63.83
2018-04-18T04:24:38.704Z,64.12
2018-04-18T04:25:38.727Z,64.02
2018-04-18T04:26:38.745Z,64.02
2018-04-18T04:27:38.772Z,64.22
2018-04-18T04:28:38.806Z,63.93
2018-04-18T04:29:38.835Z,64.12
2018-04-18T04:30:38.838Z,63.73
2018-04-18T04:31:38.873Z,63.35
2018-04-18T04:32:38.878Z,64.56
2018-04-18T04:33:38.905Z,64.22
2018-04-18T04:34:38.923Z,63.83
2018-04-18T04:35:38.952Z,64.22
2018-04-18T04:36:38.976Z,64.40
2018-04-18T04:37:39.026Z,64.69
2018-04-18T04:38:39.020Z,65.23
2018-04-18T04:39:39.030Z,65.14
2018-04-18T04:40:39.063Z,64.75
2018-04-18T04:41:39.093Z,65.42
2018-04-18T04:42:39.213Z,64.95
2018-04-18T04:43:39.133Z,65.77
2018-04-18T04:44:39.177Z,66.06
2018-04-18T04:45:39.189Z,66.19
2018-04-18T04:46:39.190Z,65.81
2018-04-18T04:47:39.213Z,65.81
2018-04-18T04:48:39.234Z,66.38
2018-04-18T04:49:39.281Z,65.61
2018-04-18T04:50:39.296Z,64.85
2018-04-18T04:51:39.320Z,64.79
2018-04-18T04:52:39.328Z,65.04
2018-04-18T04:53:39.345Z,65.26
2018-04-18T04:54:39.364Z,65.33
2018-04-18T04:55:39.394Z,65.81
2018-04-18T04:56:39.442Z,66.00
2018-04-18T04:57:39.499Z,66.47
2018-04-18T04:58:39.460Z,66.47
2018-04-18T04:59:39.481Z,66.28
2018-04-18T05:00:39.759Z,66.86
2018-04-18T05:01:39.681Z,66.47
2018-04-18T05:02:39.545Z,65.81
2018-04-18T05:03:39.564Z,65.23
2018-04-18T05:04:39.597Z,64.69
2018-04-18T05:05:39.608Z,63.93
2018-04-18T05:06:39.633Z,63.64
2018-04-18T05:07:39.653Z,64.56
2018-04-18T05:08:39.672Z,64.56
2018-04-18T05:09:39.691Z,64.50
2018-04-18T05:10:39.730Z,64.37
2018-04-18T05:11:39.752Z,64.31
2018-04-18T05:12:39.766Z,64.09
2018-04-18T05:13:39.795Z,64.56
2018-04-18T05:14:39.811Z,64.56
2018-04-18T05:15:39.831Z,64.12
2018-04-18T05:16:39.841Z,63.45
2018-04-18T05:17:39.875Z,62.97
2018-04-18T05:18:39.905Z,63.26
2018-04-18T05:19:39.911Z,63.16
2018-04-18T05:20:39.941Z,62.97
2018-04-18T05:21:39.967Z,63.26
2018-04-18T05:22:39.978Z,64.59
2018-04-18T05:23:39.999Z,64.98
2018-04-18T05:24:40.028Z,65.45
2018-04-18T05:25:40.067Z,64.98
2018-04-18T05:26:40.067Z,65.65
2018-04-18T05:27:40.096Z,65.61
2018-04-18T05:28:40.122Z,66.80
2018-04-18T05:29:40.131Z,65.55
2018-04-18T05:30:40.167Z,65.81
2018-04-18T05:31:40.182Z,65.84
2018-04-18T05:32:40.215Z,66.00
2018-04-18T05:33:40.224Z,66.57
2018-04-18T05:34:40.246Z,67.14
2018-04-18T05:35:40.314Z,66.96
2018-04-18T05:36:40.296Z,67.34
2018-04-18T05:37:40.315Z,66.19
2018-04-18T05:38:40.335Z,65.61
2018-04-18T05:39:40.367Z,65.52
2018-04-18T05:40:40.382Z,65.65
2018-04-18T05:41:40.397Z,65.90
2018-04-18T05:42:40.417Z,66.47
2018-04-18T05:43:40.451Z,66.22
2018-04-18T05:44:40.468Z,65.74
2018-04-18T05:45:40.485Z,65.08
2018-04-18T05:46:40.508Z,65.08
2018-04-18T05:47:40.533Z,64.98
2018-04-18T05:48:40.581Z,65.55
2018-04-18T05:49:40.573Z,65.26
2018-04-18T05:50:40.604Z,64.88
2018-04-18T05:51:40.616Z,64.79
2018-04-18T05:52:40.642Z,64.79
2018-04-18T05:53:40.663Z,65.26
2018-04-18T05:54:40.688Z,64.98
2018-04-18T05:55:40.748Z,65.26
2018-04-18T05:56:40.726Z,65.08
2018-04-18T05:57:40.841Z,65.08
2018-04-18T05:58:40.769Z,65.08
2018-04-18T05:59:40.811Z,65.08
2018-04-18T06:00:40.822Z,64.79
2018-04-18T06:01:40.842Z,64.15
2018-04-18T06:02:40.863Z,64.59
2018-04-18T06:03:40.886Z,63.96
2018-04-18T06:04:40.909Z,63.76
2018-04-18T06:05:40.928Z,64.43
2018-04-18T06:06:40.955Z,63.86
2018-04-18T06:07:40.985Z,63.48
2018-04-18T06:08:41.006Z,63.76
2018-04-18T06:09:41.027Z,63.67
2018-04-18T06:10:41.046Z,63.76
2018-04-18T06:11:41.080Z,63.39
2018-04-18T06:12:41.094Z,63.57
2018-04-18T06:13:41.110Z,63.57
2018-04-18T06:14:41.135Z,63.00
2018-04-18T06:15:41.180Z,63.29
2018-04-18T06:16:41.191Z,63.57
2018-04-18T06:17:41.199Z,63.39
2018-04-18T06:18:41.226Z,62.93
2018-04-18T06:19:41.242Z,63.39
2018-04-18T06:20:41.273Z,63.42
2018-04-18T06:21:41.294Z,63.48
2018-04-18T06:22:41.317Z,63.48
2018-04-18T06:23:41.367Z,63.13
2018-04-18T06:24:41.359Z,63.32
2018-04-18T06:25:41.384Z,62.93
2018-04-18T06:26:41.401Z,62.93
2018-04-18T06:27:41.427Z,63.32
2018-04-18T06:28:41.448Z,63.80
2018-04-18T06:29:41.480Z,63.51
2018-04-18T06:30:41.492Z,64.37
2018-04-18T06:31:41.519Z,63.70
2018-04-18T06:32:41.536Z,63.42
2018-04-18T06:33:41.617Z,63.22
2018-04-18T06:34:41.587Z,63.32
2018-04-18T06:35:41.615Z,62.65
2018-04-18T06:36:41.631Z,62.93
2018-04-18T06:37:41.653Z,62.36
2018-04-18T06:38:41.675Z,62.10
2018-04-18T06:39:41.711Z,62.30
2018-04-18T06:40:41.719Z,62.46
2018-04-18T06:41:41.740Z,62.46
2018-04-18T06:42:41.769Z,62.39
2018-04-18T06:43:41.785Z,62.68
2018-04-18T06:44:41.807Z,62.30
2018-04-18T06:45:41.838Z,61.72
2018-04-18T06:46:41.855Z,62.26
2018-04-18T06:47:41.878Z,62.10
2018-04-18T06:48:41.961Z,61.82
2018-04-18T06:49:41.948Z,62.01
2018-04-18T06:50:41.952Z,62.39
2018-04-18T06:51:41.977Z,62.30
2018-04-18T06:52:42.004Z,62.39
2018-04-18T06:53:42.015Z,62.30
2018-04-18T06:54:42.044Z,62.30
2018-04-18T06:55:42.066Z,61.24
2018-04-18T06:56:42.092Z,60.60
2018-04-18T06:57:42.135Z,60.22
2018-04-18T06:58:42.135Z,60.03
2018-04-18T06:59:42.165Z,60.12
2018-04-18T07:00:42.190Z,60.19
2018-04-18T07:01:42.202Z,60.22
2018-04-18T07:02:42.223Z,60.22
2018-04-18T07:03:42.255Z,59.55
2018-04-18T07:04:42.273Z,59.26
2018-04-18T07:05:42.291Z,59.93
2018-04-18T07:06:42.313Z,59.45
2018-04-18T07:07:42.341Z,59.83
2018-04-18T07:08:42.370Z,59.16
2018-04-18T07:09:42.391Z,59.83
2018-04-18T07:10:42.416Z,59.93
2018-04-18T07:11:42.430Z,59.45
2018-04-18T07:12:42.458Z,58.87
2018-04-18T07:13:42.481Z,59.06
2018-04-18T07:14:42.503Z,59.26
2018-04-18T07:15:42.530Z,59.83
2018-04-18T07:16:42.550Z,59.64
2018-04-18T07:17:42.577Z,59.45
2018-04-18T07:18:42.601Z,59.74
2018-04-18T07:19:42.624Z,58.91
2018-04-18T07:20:42.643Z,58.91
2018-04-18T07:21:42.695Z,59.64
2018-04-18T07:22:42.696Z,59.58
2018-04-18T07:23:42.758Z,59.19
2018-04-18T07:24:42.735Z,58.71
2018-04-18T07:25:42.758Z,59.09
2018-04-18T07:26:42.782Z,59.38
2018-04-18T07:27:42.836Z,59.29
2018-04-18T07:28:42.837Z,59.58
2018-04-18T07:29:42.849Z,60.25
2018-04-18T07:30:42.879Z,59.38
2018-04-18T07:31:42.900Z,58.71
2018-04-18T07:32:42.926Z,58.81
2018-04-18T07:33:42.947Z,58.26
2018-04-18T07:34:42.974Z,58.64
2018-04-18T07:35:42.994Z,58.64
2018-04-18T07:36:43.019Z,58.94
2018-04-18T07:37:43.069Z,58.74
2018-04-18T07:38:43.063Z,58.94
2018-04-18T07:39:43.090Z,58.74
2018-04-18T07:40:43.126Z,59.70
2018-04-18T07:41:43.136Z,59.32
2018-04-18T07:42:43.174Z,59.89
2018-04-18T07:43:43.184Z,59.70
2018-04-18T07:44:43.208Z,60.18
2018-04-18T07:45:43.232Z,60.28
2018-04-18T07:46:43.283Z,60.38
2018-04-18T07:47:43.312Z,60.11
2018-04-18T07:48:43.302Z,60.21
2018-04-18T07:49:43.371Z,60.21
2018-04-18T07:50:43.360Z,60.40
2018-04-18T07:51:43.379Z,59.73
2018-04-18T07:52:43.398Z,59.92
2018-04-18T07:53:43.420Z,60.21
2018-04-18T07:54:43.445Z,59.64
2018-04-18T07:55:43.475Z,59.64
2018-04-18T07:56:43.493Z,59.25
2018-04-18T07:57:43.525Z,59.25
2018-04-18T07:58:43.546Z,59.54
2018-04-18T07:59:43.565Z,59.44
2018-04-18T08:00:43.599Z,59.44
2018-04-18T08:01:43.615Z,59.73
2018-04-18T08:02:43.650Z,59.95
2018-04-18T08:03:43.663Z,59.83
2018-04-18T08:04:43.691Z,59.38
2018-04-18T08:05:43.711Z,60.53
2018-04-18T08:06:43.733Z,60.34
2018-04-18T08:07:43.761Z,60.24
2018-04-18T08:08:43.785Z,60.24
2018-04-18T08:09:43.805Z,60.43
2018-04-18T08:10:43.832Z,60.43
2018-04-18T08:11:43.856Z,60.24
2018-04-18T08:12:43.888Z,60.34
2018-04-18T08:13:43.897Z,60.63
2018-04-18T08:14:43.936Z,60.72
2018-04-18T08:15:43.946Z,60.53
2018-04-18T08:16:43.972Z,61.20
2018-04-18T08:17:44.005Z,60.82
2018-04-18T08:18:44.020Z,60.72
2018-04-18T08:19:44.050Z,60.75
2018-04-18T08:20:44.075Z,60.82
2018-04-18T08:21:44.101Z,61.01
2018-04-18T08:22:44.122Z,61.40
2018-04-18T08:23:44.146Z,62.07
2018-04-18T08:24:44.166Z,62.26
2018-04-18T08:25:44.196Z,62.19
2018-04-18T08:26:44.219Z,61.68
2018-04-18T08:27:44.243Z,61.52
2018-04-18T08:28:44.267Z,61.52
2018-04-18T08:29:44.295Z,61.61
2018-04-18T08:30:44.316Z,62.26
2018-04-18T08:31:44.347Z,62.19
2018-04-18T08:32:44.369Z,62.19
2018-04-18T08:33:44.388Z,61.43
2018-04-18T08:34:44.411Z,61.52
2018-04-18T08:35:44.440Z,61.23
2018-04-18T08:36:44.467Z,61.46
2018-04-18T08:37:44.494Z,60.30
2018-04-18T08:38:44.518Z,59.53
2018-04-18T08:39:44.539Z,59.15
2018-04-18T08:40:44.628Z,58.47
2018-04-18T08:41:44.584Z,58.37
2018-04-18T08:42:44.615Z,58.67
2018-04-18T08:43:44.636Z,58.47
2018-04-18T08:44:44.659Z,58.47
2018-04-18T08:45:44.698Z,58.47
2018-04-18T08:46:44.717Z,58.95
2018-04-18T08:47:44.741Z,58.57
2018-04-18T08:48:44.762Z,58.60
2018-04-18T08:49:44.789Z,58.12
2018-04-18T08:50:44.890Z,57.83
2018-04-18T08:51:44.891Z,57.45
2018-04-18T08:52:44.859Z,57.35
2018-04-18T08:53:44.907Z,56.20
2018-04-18T08:54:44.916Z,56.38
2018-04-18T08:55:44.937Z,55.81
2018-04-18T08:56:44.959Z,55.43
2018-04-18T08:57:44.984Z,55.33
2018-04-18T08:58:45.022Z,56.20
2018-04-18T08:59:45.040Z,56.38
2018-04-18T09:00:45.060Z,56.41
2018-04-18T09:01:45.090Z,55.83
2018-04-18T09:02:45.113Z,56.22
2018-04-18T09:03:45.142Z,56.12
2018-04-18T09:04:45.163Z,55.35
2018-04-18T09:05:45.185Z,55.35
2018-04-18T09:06:45.224Z,55.45
2018-04-18T09:07:45.239Z,54.39
2018-04-18T09:08:45.269Z,54.68
2018-04-18T09:09:45.331Z,54.39
2018-04-18T09:10:45.313Z,54.30
2018-04-18T09:11:45.333Z,54.78
2018-04-18T09:12:45.368Z,55.45
2018-04-18T09:13:45.399Z,56.12
2018-04-18T09:14:45.411Z,56.12
2018-04-18T09:15:45.489Z,55.55
2018-04-18T09:16:45.461Z,54.49
2018-04-18T09:17:45.503Z,53.74
2018-04-18T09:18:45.512Z,52.85
2018-04-18T09:19:45.540Z,52.97
2018-04-18T09:20:45.568Z,53.27
2018-04-18T09:21:45.599Z,53.45
2018-04-18T09:22:45.614Z,53.27
2018-04-18T09:23:45.655Z,53.77
2018-04-18T09:24:45.664Z,51.94
2018-04-18T09:25:45.691Z,51.07
2018-04-18T09:26:45.721Z,51.17
2018-04-18T09:27:45.746Z,48.66
2018-04-18T09:28:45.773Z,46.56
2018-04-18T09:29:45.821Z,45.68
2018-04-18T09:30:45.837Z,45.58
2018-04-18T09:31:45.849Z,45.77
2018-04-18T09:32:45.894Z,44.83
2018-04-18T09:33:45.896Z,44.15
2018-04-18T09:34:45.920Z,43.00
2018-04-18T09:35:45.966Z,42.63
2018-04-18T09:36:45.984Z,42.03
2018-04-18T09:37:46.000Z,42.80
2018-04-18T09:38:46.043Z,43.67
2018-04-18T09:39:46.066Z,43.87
2018-04-18T09:40:46.084Z,44.52
2018-04-18T09:41:46.106Z,45.21
2018-04-18T09:42:46.127Z,44.35
2018-04-18T09:43:46.157Z,44.62
2018-04-18T09:44:46.187Z,44.90
2018-04-18T09:45:46.209Z,45.20
2018-04-18T09:46:46.239Z,43.67
2018-04-18T09:47:46.257Z,42.42
2018-04-18T09:48:46.292Z,42.80
2018-04-18T09:49:46.314Z,43.19
2018-04-18T09:50:46.334Z,41.94
2018-04-18T09:51:46.362Z,41.75
2018-04-18T09:52:46.393Z,41.84
2018-04-18T09:53:46.421Z,42.25
2018-04-18T09:54:46.445Z,41.67
2018-04-18T09:55:46.477Z,41.38
2018-04-18T09:56:46.499Z,41.09
2018-04-18T09:57:46.543Z,41.28
2018-04-18T09:58:46.549Z,42.44
2018-04-18T09:59:46.585Z,42.05
2018-04-18T10:00:46.605Z,40.99
2018-04-18T10:01:46.625Z,40.32
2018-04-18T10:02:46.653Z,39.84
2018-04-18T10:03:46.683Z,40.05
2018-04-18T10:04:46.708Z,41.19
2018-04-18T10:05:46.751Z,40.82
2018-04-18T10:06:46.769Z,42.63
2018-04-18T10:07:46.787Z,40.34
2018-04-18T10:08:46.824Z,39.18
2018-04-18T10:09:46.849Z,38.79
2018-04-18T10:10:46.863Z,39.37
2018-04-18T10:11:46.898Z,41.20
2018-04-18T10:12:47.001Z,41.77
2018-04-18T10:13:46.949Z,40.82
2018-04-18T10:14:46.981Z,40.24
2018-04-18T10:15:46.998Z,40.34
2018-04-18T10:16:47.026Z,40.72
2018-04-18T10:17:47.060Z,40.07
2018-04-18T10:18:47.085Z,38.81
2018-04-18T10:19:47.135Z,37.95
2018-04-18T10:20:47.133Z,38.23
2018-04-18T10:21:47.169Z,38.79
2018-04-18T10:22:47.202Z,39.09
2018-04-18T10:23:47.218Z,38.89
2018-04-18T10:24:47.241Z,38.99
2018-04-18T10:25:47.274Z,39.09
2018-04-18T10:26:47.305Z,39.09
2018-04-18T10:27:47.336Z,41.02
2018-04-18T10:28:47.351Z,39.97
2018-04-18T10:29:47.379Z,38.81
2018-04-18T10:30:47.415Z,38.62
2018-04-18T10:31:47.424Z,39.01
2018-04-18T10:32:47.452Z,38.81
2018-04-18T10:33:47.486Z,38.81
2018-04-18T10:34:47.513Z,40.34
2018-04-18T10:35:47.535Z,40.44
2018-04-18T10:36:47.562Z,41.69
2018-04-18T10:37:47.605Z,42.85
2018-04-18T10:38:47.621Z,41.02
2018-04-18T10:39:47.645Z,38.53
2018-04-18T10:40:47.685Z,39.28
2018-04-18T10:41:47.700Z,41.03
2018-04-18T10:42:47.731Z,41.02
2018-04-18T10:43:47.761Z,41.20
2018-04-18T10:44:47.779Z,40.26
2018-04-18T10:45:47.807Z,39.01
2018-04-18T10:46:47.833Z,40.26
2018-04-18T10:47:47.868Z,40.44
2018-04-18T10:48:47.888Z,40.07
2018-04-18T10:49:47.954Z,39.29
2018-04-18T10:50:47.940Z,39.97
2018-04-18T10:51:47.967Z,40.44
2018-04-18T10:52:48.012Z,40.26
2018-04-18T10:53:48.032Z,40.36
2018-04-18T10:54:48.060Z,39.11
2018-04-18T10:55:48.093Z,39.01
2018-04-18T10:56:48.105Z,38.43
2018-04-18T10:57:48.134Z,37.46
2018-04-18T10:58:48.159Z,38.70
2018-04-18T10:59:48.193Z,39.86
2018-04-18T11:00:48.216Z,39.18
2018-04-18T11:01:48.239Z,39.37
2018-04-18T11:02:48.277Z,41.02
2018-04-18T11:03:48.307Z,40.07
2018-04-18T11:04:48.333Z,38.93
2018-04-18T11:05:48.380Z,39.39
2018-04-18T11:06:48.387Z,39.51
2018-04-18T11:07:48.440Z,39.90
2018-04-18T11:08:48.474Z,39.32
2018-04-18T11:09:48.466Z,39.99
2018-04-18T11:10:48.491Z,39.90
2018-04-18T11:11:48.516Z,38.74
2018-04-18T11:12:48.547Z,37.67
2018-04-18T11:13:48.573Z,39.22
2018-04-18T11:14:48.627Z,38.93
2018-04-18T11:15:48.628Z,38.45
2018-04-18T11:16:48.658Z,36.72
2018-04-18T11:17:48.684Z,35.45
2018-04-18T11:18:48.711Z,35.37
2018-04-18T11:19:48.735Z,35.26
2018-04-18T11:20:48.762Z,34.89
2018-04-18T11:21:48.788Z,35.28
2018-04-18T11:22:48.813Z,34.91
2018-04-18T11:23:48.844Z,35.08
2018-04-18T11:24:48.868Z,34.02
2018-04-18T11:25:48.897Z,33.63
2018-04-18T11:26:48.934Z,33.34
2018-04-18T11:27:48.949Z,34.41
2018-04-18T11:28:48.986Z,34.50
2018-04-18T11:29:49.012Z,34.50
2018-04-18T11:30:49.044Z,34.60
2018-04-18T11:31:49.064Z,34.79
2018-04-18T11:32:49.087Z,33.63
2018-04-18T11:33:49.127Z,32.97
2018-04-18T11:34:49.147Z,32.78
2018-04-18T11:35:49.178Z,33.63
2018-04-18T11:36:49.201Z,34.04
2018-04-18T11:37:49.235Z,34.04
2018-04-18T11:38:49.266Z,33.26
2018-04-18T11:39:49.324Z,34.62
2018-04-18T11:40:49.318Z,33.75
2018-04-18T11:41:49.339Z,33.45
2018-04-18T11:42:49.368Z,33.94
2018-04-18T11:43:49.402Z,33.17
2018-04-18T11:44:49.450Z,32.99
2018-04-18T11:45:49.454Z,32.99
2018-04-18T11:46:49.476Z,34.54
2018-04-18T11:47:49.511Z,35.80
2018-04-18T11:48:49.542Z,36.74
2018-04-18T11:49:49.564Z,36.74
2018-04-18T11:50:49.602Z,36.38
2018-04-18T11:51:49.658Z,35.12
2018-04-18T11:52:49.649Z,35.10
2018-04-18T11:53:49.677Z,35.10
2018-04-18T11:54:49.707Z,35.50
2018-04-18T11:55:49.733Z,35.02
2018-04-18T11:56:49.762Z,35.31
2018-04-18T11:57:49.818Z,35.04
2018-04-18T11:58:49.820Z,34.45
2018-04-18T11:59:49.848Z,34.84
2018-04-18T12:00:49.870Z,34.65
2018-04-18T12:01:49.910Z,34.05
2018-04-18T12:02:49.934Z,34.54
2018-04-18T12:03:49.957Z,36.47
2018-04-18T12:04:49.996Z,36.66
2018-04-18T12:05:50.013Z,35.99
2018-04-18T12:06:50.053Z,33.97
2018-04-18T12:07:50.072Z,33.69
2018-04-18T12:08:50.100Z,32.62
2018-04-18T12:09:50.127Z,32.91
2018-04-18T12:10:50.159Z,31.57
2018-04-18T12:11:50.187Z,31.46
2018-04-18T12:12:50.208Z,31.65
2018-04-18T12:13:50.241Z,30.98
2018-04-18T12:14:50.268Z,31.65
2018-04-18T12:15:50.294Z,31.76
2018-04-18T12:16:50.341Z,32.06
2018-04-18T12:17:50.355Z,31.37
2018-04-18T12:18:50.394Z,31.96
2018-04-18T12:19:50.411Z,32.34
2018-04-18T12:20:50.442Z,32.73
2018-04-18T12:21:50.469Z,32.54
2018-04-18T12:22:50.503Z,32.82
2018-04-18T12:23:50.530Z,32.24
2018-04-18T12:24:50.553Z,32.06
2018-04-18T12:25:50.585Z,31.96
2018-04-18T12:26:50.611Z,32.24
2018-04-18T12:27:50.654Z,32.64
2018-04-18T12:28:50.696Z,32.92
2018-04-18T12:29:50.695Z,33.02
2018-04-18T12:30:50.724Z,32.64
2018-04-18T12:31:50.753Z,32.73
2018-04-18T12:32:50.784Z,32.46
2018-04-18T12:33:50.810Z,32.56
2018-04-18T12:34:50.863Z,32.46
2018-04-18T12:35:50.870Z,32.56
2018-04-18T12:36:50.896Z,32.46
2018-04-18T12:37:50.960Z,32.84
2018-04-18T12:38:50.957Z,33.14
2018-04-18T12:39:50.982Z,33.81
2018-04-18T12:40:51.017Z,32.84
2018-04-18T12:41:51.086Z,33.54
2018-04-18T12:42:51.105Z,33.42
2018-04-18T12:43:51.103Z,32.76
2018-04-18T12:44:51.131Z,32.86
2018-04-18T12:45:51.159Z,32.47
2018-04-18T12:46:51.189Z,33.07
2018-04-18T12:47:51.223Z,32.67
2018-04-18T12:48:51.251Z,32.78
2018-04-18T12:49:51.275Z,32.00
2018-04-18T12:50:51.312Z,32.02
2018-04-18T12:51:51.338Z,31.82
2018-04-18T12:52:51.366Z,31.62